sensor_id;sensor_type;location;lat;lon;timestamp;temperature;humidity
52669;DHT22;59898;52.786;6.892;2023-03-08T00:00:38;0.60;99.90
52669;DHT22;59898;52.786;6.892;2023-03-08T00:03:59;0.60;99.90
52669;DHT22;59898;52.786;6.892;2023-03-08T00:07:20;1.10;99.90
52669;DHT22;59898;52.786;6.892;2023-03-08T00:10:41;0.60;99.90
52669;DHT22;59898;52.786;6.892;2023-03-08T00:14:02;0.60;99.90
52669;DHT22;59898;52.786;6.892;2023-03-08T00:17:23;0.60;99.90
52669;DHT22;59898;52.786;6.892;2023-03-08T00:20:43;0.50;99.90
52669;DHT22;59898;52.786;6.892;2023-03-08T00:24:04;1.40;99.90
52669;DHT22;59898;52.786;6.892;2023-03-08T00:27:25;0.50;99.90
52669;DHT22;59898;52.786;6.892;2023-03-08T00:31:03;0.50;99.90
52669;DHT22;59898;52.786;6.892;2023-03-08T00:34:25;0.50;99.90
52669;DHT22;59898;52.786;6.892;2023-03-08T00:37:45;0.50;99.90
52669;DHT22;59898;52.786;6.892;2023-03-08T00:41:06;0.50;99.90
52669;DHT22;59898;52.786;6.892;2023-03-08T00:44:27;0.50;99.90
52669;DHT22;59898;52.786;6.892;2023-03-08T00:47:48;0.50;99.90
52669;DHT22;59898;52.786;6.892;2023-03-08T00:51:12;0.90;99.90
52669;DHT22;59898;52.786;6.892;2023-03-08T00:54:33;0.80;99.90
52669;DHT22;59898;52.786;6.892;2023-03-08T00:57:54;0.40;99.90
52669;DHT22;59898;52.786;6.892;2023-03-08T01:01:16;0.40;99.90
52669;DHT22;59898;52.786;6.892;2023-03-08T01:04:37;0.30;99.90
52669;DHT22;59898;52.786;6.892;2023-03-08T01:07:58;0.30;99.90
52669;DHT22;59898;52.786;6.892;2023-03-08T01:11:21;1.00;99.90
52669;DHT22;59898;52.786;6.892;2023-03-08T01:14:43;1.10;99.90
52669;DHT22;59898;52.786;6.892;2023-03-08T01:18:04;1.10;99.90
52669;DHT22;59898;52.786;6.892;2023-03-08T01:21:27;0.30;99.90
52669;DHT22;59898;52.786;6.892;2023-03-08T01:24:49;1.30;99.90
52669;DHT22;59898;52.786;6.892;2023-03-08T01:28:09;0.30;99.90
52669;DHT22;59898;52.786;6.892;2023-03-08T01:31:30;0.20;99.90
52669;DHT22;59898;52.786;6.892;2023-03-08T01:34:51;0.20;99.90
52669;DHT22;59898;52.786;6.892;2023-03-08T01:38:11;0.20;99.90
52669;DHT22;59898;52.786;6.892;2023-03-08T01:41:32;0.20;99.90
52669;DHT22;59898;52.786;6.892;2023-03-08T01:44:56;0.50;99.90
52669;DHT22;59898;52.786;6.892;2023-03-08T01:48:17;1.50;99.90
52669;DHT22;59898;52.786;6.892;2023-03-08T01:51:45;0.20;99.90
52669;DHT22;59898;52.786;6.892;2023-03-08T01:55:10;0.20;99.90
52669;DHT22;59898;52.786;6.892;2023-03-08T01:58:32;0.50;99.90
52669;DHT22;59898;52.786;6.892;2023-03-08T02:01:53;0.20;99.90
52669;DHT22;59898;52.786;6.892;2023-03-08T02:05:15;0.20;99.90
52669;DHT22;59898;52.786;6.892;2023-03-08T02:08:36;0.20;99.90
52669;DHT22;59898;52.786;6.892;2023-03-08T02:12:00;2.00;99.90
52669;DHT22;59898;52.786;6.892;2023-03-08T02:15:22;1.80;99.90
52669;DHT22;59898;52.786;6.892;2023-03-08T02:19:16;0.20;99.90
52669;DHT22;59898;52.786;6.892;2023-03-08T02:22:41;0.20;99.90
52669;DHT22;59898;52.786;6.892;2023-03-08T02:26:03;0.20;99.90
52669;DHT22;59898;52.786;6.892;2023-03-08T02:29:24;0.20;99.90
52669;DHT22;59898;52.786;6.892;2023-03-08T02:32:45;0.20;99.90
52669;DHT22;59898;52.786;6.892;2023-03-08T02:36:06;1.40;99.90
52669;DHT22;59898;52.786;6.892;2023-03-08T02:39:27;0.20;99.90
52669;DHT22;59898;52.786;6.892;2023-03-08T02:42:48;0.10;99.90
52669;DHT22;59898;52.786;6.892;2023-03-08T02:46:12;0.50;99.90
52669;DHT22;59898;52.786;6.892;2023-03-08T02:49:33;1.00;99.90
52669;DHT22;59898;52.786;6.892;2023-03-08T02:52:54;0.10;99.90
52669;DHT22;59898;52.786;6.892;2023-03-08T02:56:14;0.10;99.90
52669;DHT22;59898;52.786;6.892;2023-03-08T02:59:35;0.10;99.90
52669;DHT22;59898;52.786;6.892;2023-03-08T03:02:56;0.10;99.90
52669;DHT22;59898;52.786;6.892;2023-03-08T03:06:18;0.00;99.90
52669;DHT22;59898;52.786;6.892;2023-03-08T03:09:39;0.00;99.90
52669;DHT22;59898;52.786;6.892;2023-03-08T03:13:00;1.00;99.90
52669;DHT22;59898;52.786;6.892;2023-03-08T03:16:20;0.30;99.90
52669;DHT22;59898;52.786;6.892;2023-03-08T03:19:41;0.00;99.90
52669;DHT22;59898;52.786;6.892;2023-03-08T03:23:02;0.00;99.90
52669;DHT22;59898;52.786;6.892;2023-03-08T03:26:23;0.70;99.90
52669;DHT22;59898;52.786;6.892;2023-03-08T03:29:44;0.00;99.90
52669;DHT22;59898;52.786;6.892;2023-03-08T03:33:05;0.00;99.90
52669;DHT22;59898;52.786;6.892;2023-03-08T03:36:26;0.00;99.90
52669;DHT22;59898;52.786;6.892;2023-03-08T03:39:47;-0.10;99.90
52669;DHT22;59898;52.786;6.892;2023-03-08T03:43:07;-0.10;99.90
52669;DHT22;59898;52.786;6.892;2023-03-08T03:46:28;-0.10;99.90
52669;DHT22;59898;52.786;6.892;2023-03-08T03:49:49;1.50;99.90
52669;DHT22;59898;52.786;6.892;2023-03-08T03:53:09;-0.10;99.90
52669;DHT22;59898;52.786;6.892;2023-03-08T03:56:30;1.00;99.90
52669;DHT22;59898;52.786;6.892;2023-03-08T03:59:51;0.00;99.90
52669;DHT22;59898;52.786;6.892;2023-03-08T04:03:11;-0.10;99.90
52669;DHT22;59898;52.786;6.892;2023-03-08T04:06:33;1.50;99.90
52669;DHT22;59898;52.786;6.892;2023-03-08T04:09:53;-0.10;99.90
52669;DHT22;59898;52.786;6.892;2023-03-08T04:13:14;-0.10;99.90
52669;DHT22;59898;52.786;6.892;2023-03-08T04:16:37;-0.20;99.90
52669;DHT22;59898;52.786;6.892;2023-03-08T04:19:58;0.70;99.90
52669;DHT22;59898;52.786;6.892;2023-03-08T04:23:18;0.20;99.90
52669;DHT22;59898;52.786;6.892;2023-03-08T04:26:39;-0.20;99.90
52669;DHT22;59898;52.786;6.892;2023-03-08T04:30:00;-0.20;99.90
52669;DHT22;59898;52.786;6.892;2023-03-08T04:33:21;0.50;99.90
52669;DHT22;59898;52.786;6.892;2023-03-08T04:36:42;-0.20;99.90
52669;DHT22;59898;52.786;6.892;2023-03-08T04:40:03;0.60;99.90
52669;DHT22;59898;52.786;6.892;2023-03-08T04:43:27;-0.20;99.90
52669;DHT22;59898;52.786;6.892;2023-03-08T04:46:48;-0.20;99.90
52669;DHT22;59898;52.786;6.892;2023-03-08T04:50:09;0.10;99.90
52669;DHT22;59898;52.786;6.892;2023-03-08T04:53:31;-0.20;99.90
52669;DHT22;59898;52.786;6.892;2023-03-08T04:56:52;0.70;99.90
52669;DHT22;59898;52.786;6.892;2023-03-08T05:00:13;-0.20;99.90
52669;DHT22;59898;52.786;6.892;2023-03-08T05:03:34;-0.20;99.90
52669;DHT22;59898;52.786;6.892;2023-03-08T05:06:54;0.10;99.90
52669;DHT22;59898;52.786;6.892;2023-03-08T05:10:15;-0.30;99.90
52669;DHT22;59898;52.786;6.892;2023-03-08T05:13:37;-0.30;99.90
52669;DHT22;59898;52.786;6.892;2023-03-08T05:16:58;-0.30;99.90
52669;DHT22;59898;52.786;6.892;2023-03-08T05:20:19;-0.40;99.90
52669;DHT22;59898;52.786;6.892;2023-03-08T05:23:40;-0.40;99.90
52669;DHT22;59898;52.786;6.892;2023-03-08T05:27:01;0.80;99.90
52669;DHT22;59898;52.786;6.892;2023-03-08T05:30:22;0.50;99.90
52669;DHT22;59898;52.786;6.892;2023-03-08T05:33:44;0.00;99.90
52669;DHT22;59898;52.786;6.892;2023-03-08T05:37:05;-0.40;99.90
52669;DHT22;59898;52.786;6.892;2023-03-08T05:40:26;0.10;99.90
52669;DHT22;59898;52.786;6.892;2023-03-08T05:43:47;-0.20;99.90
52669;DHT22;59898;52.786;6.892;2023-03-08T05:47:07;0.80;99.90
52669;DHT22;59898;52.786;6.892;2023-03-08T05:50:28;0.50;99.90
52669;DHT22;59898;52.786;6.892;2023-03-08T05:53:49;0.80;99.90
52669;DHT22;59898;52.786;6.892;2023-03-08T05:57:10;1.30;99.90
52669;DHT22;59898;52.786;6.892;2023-03-08T06:00:30;-0.40;99.90
52669;DHT22;59898;52.786;6.892;2023-03-08T06:03:53;0.00;99.90
52669;DHT22;59898;52.786;6.892;2023-03-08T06:07:14;-0.50;99.90
52669;DHT22;59898;52.786;6.892;2023-03-08T06:10:34;-0.30;99.90
52669;DHT22;59898;52.786;6.892;2023-03-08T06:13:55;0.90;99.90
52669;DHT22;59898;52.786;6.892;2023-03-08T06:17:16;-0.70;99.90
52669;DHT22;59898;52.786;6.892;2023-03-08T06:20:36;-0.70;99.90
52669;DHT22;59898;52.786;6.892;2023-03-08T06:23:57;1.30;99.90
52669;DHT22;59898;52.786;6.892;2023-03-08T06:27:18;0.00;99.90
52669;DHT22;59898;52.786;6.892;2023-03-08T06:30:38;-1.20;99.90
52669;DHT22;59898;52.786;6.892;2023-03-08T06:33:59;0.10;99.90
52669;DHT22;59898;52.786;6.892;2023-03-08T06:37:20;-0.90;99.90
52669;DHT22;59898;52.786;6.892;2023-03-08T06:40:40;0.30;99.90
52669;DHT22;59898;52.786;6.892;2023-03-08T06:44:01;-1.00;99.90
52669;DHT22;59898;52.786;6.892;2023-03-08T06:47:22;-0.90;99.90
52669;DHT22;59898;52.786;6.892;2023-03-08T06:50:42;-0.80;99.90
52669;DHT22;59898;52.786;6.892;2023-03-08T06:54:03;-0.80;99.90
52669;DHT22;59898;52.786;6.892;2023-03-08T06:57:24;-0.80;99.90
52669;DHT22;59898;52.786;6.892;2023-03-08T07:00:45;-0.10;99.90
52669;DHT22;59898;52.786;6.892;2023-03-08T07:04:05;0.70;99.90
52669;DHT22;59898;52.786;6.892;2023-03-08T07:07:26;-0.80;99.90
52669;DHT22;59898;52.786;6.892;2023-03-08T07:10:47;-0.70;99.90
52669;DHT22;59898;52.786;6.892;2023-03-08T07:14:08;-0.50;99.90
52669;DHT22;59898;52.786;6.892;2023-03-08T07:17:29;-0.70;99.90
52669;DHT22;59898;52.786;6.892;2023-03-08T07:20:54;-0.70;99.90
52669;DHT22;59898;52.786;6.892;2023-03-08T07:24:16;0.40;99.90
52669;DHT22;59898;52.786;6.892;2023-03-08T07:27:36;1.20;99.90
52669;DHT22;59898;52.786;6.892;2023-03-08T07:30:57;0.50;99.90
52669;DHT22;59898;52.786;6.892;2023-03-08T07:34:18;1.10;99.90
52669;DHT22;59898;52.786;6.892;2023-03-08T07:37:39;1.00;99.90
52669;DHT22;59898;52.786;6.892;2023-03-08T07:41:00;0.30;99.90
52669;DHT22;59898;52.786;6.892;2023-03-08T07:44:20;1.20;99.90
52669;DHT22;59898;52.786;6.892;2023-03-08T07:47:41;-0.50;99.90
52669;DHT22;59898;52.786;6.892;2023-03-08T07:51:04;-0.60;99.90
52669;DHT22;59898;52.786;6.892;2023-03-08T07:54:26;-0.60;99.90
52669;DHT22;59898;52.786;6.892;2023-03-08T07:57:47;1.20;99.90
52669;DHT22;59898;52.786;6.892;2023-03-08T08:01:09;-0.80;99.90
52669;DHT22;59898;52.786;6.892;2023-03-08T08:04:30;-0.80;99.90
52669;DHT22;59898;52.786;6.892;2023-03-08T08:07:51;-0.70;99.90
52669;DHT22;59898;52.786;6.892;2023-03-08T08:11:13;0.60;99.90
52669;DHT22;59898;52.786;6.892;2023-03-08T08:14:34;-0.20;99.90
52669;DHT22;59898;52.786;6.892;2023-03-08T08:17:55;-1.00;99.90
52669;DHT22;59898;52.786;6.892;2023-03-08T08:21:16;0.00;99.90
52669;DHT22;59898;52.786;6.892;2023-03-08T08:24:37;-0.30;99.90
52669;DHT22;59898;52.786;6.892;2023-03-08T08:27:57;-1.10;99.90
52669;DHT22;59898;52.786;6.892;2023-03-08T08:31:21;-1.10;99.90
52669;DHT22;59898;52.786;6.892;2023-03-08T08:34:42;-0.20;99.90
52669;DHT22;59898;52.786;6.892;2023-03-08T08:38:02;-1.10;99.90
52669;DHT22;59898;52.786;6.892;2023-03-08T08:41:23;-2.10;99.90
52669;DHT22;59898;52.786;6.892;2023-03-08T08:44:44;-0.90;99.90
52669;DHT22;59898;52.786;6.892;2023-03-08T08:48:05;-0.70;99.90
52669;DHT22;59898;52.786;6.892;2023-03-08T08:51:25;-0.80;99.90
52669;DHT22;59898;52.786;6.892;2023-03-08T08:54:51;-0.10;99.90
52669;DHT22;59898;52.786;6.892;2023-03-08T08:58:12;-0.80;99.90
52669;DHT22;59898;52.786;6.892;2023-03-08T09:01:33;-0.70;99.90
52669;DHT22;59898;52.786;6.892;2023-03-08T09:04:56;0.10;99.90
52669;DHT22;59898;52.786;6.892;2023-03-08T09:08:16;-0.20;99.90
52669;DHT22;59898;52.786;6.892;2023-03-08T09:11:37;0.80;99.90
52669;DHT22;59898;52.786;6.892;2023-03-08T09:14:58;0.00;99.90
52669;DHT22;59898;52.786;6.892;2023-03-08T09:18:18;0.10;99.90
52669;DHT22;59898;52.786;6.892;2023-03-08T09:21:39;-0.40;99.90
52669;DHT22;59898;52.786;6.892;2023-03-08T09:25:00;0.00;99.90
52669;DHT22;59898;52.786;6.892;2023-03-08T09:28:20;1.00;99.90
52669;DHT22;59898;52.786;6.892;2023-03-08T09:31:41;-0.30;99.90
52669;DHT22;59898;52.786;6.892;2023-03-08T09:35:05;-0.20;99.90
52669;DHT22;59898;52.786;6.892;2023-03-08T09:38:26;-0.20;99.90
52669;DHT22;59898;52.786;6.892;2023-03-08T09:41:56;-0.20;99.90
52669;DHT22;59898;52.786;6.892;2023-03-08T09:45:26;-0.10;99.90
52669;DHT22;59898;52.786;6.892;2023-03-08T09:48:48;0.00;99.90
52669;DHT22;59898;52.786;6.892;2023-03-08T09:52:23;0.10;99.90
52669;DHT22;59898;52.786;6.892;2023-03-08T09:55:55;0.10;99.90
52669;DHT22;59898;52.786;6.892;2023-03-08T10:13:46;0.50;99.90
52669;DHT22;59898;52.786;6.892;2023-03-08T10:17:16;2.00;99.90
52669;DHT22;59898;52.786;6.892;2023-03-08T10:20:39;0.60;99.90
52669;DHT22;59898;52.786;6.892;2023-03-08T10:27:34;0.50;99.90
52669;DHT22;59898;52.786;6.892;2023-03-08T10:31:00;0.60;99.90
52669;DHT22;59898;52.786;6.892;2023-03-08T10:34:24;1.20;99.90
52669;DHT22;59898;52.786;6.892;2023-03-08T10:37:50;1.50;99.90
52669;DHT22;59898;52.786;6.892;2023-03-08T10:41:15;1.10;99.90
52669;DHT22;59898;52.786;6.892;2023-03-08T10:44:43;1.60;99.90
52669;DHT22;59898;52.786;6.892;2023-03-08T10:48:05;1.00;99.90
52669;DHT22;59898;52.786;6.892;2023-03-08T10:51:28;0.90;99.90
52669;DHT22;59898;52.786;6.892;2023-03-08T10:55:03;1.00;99.90
52669;DHT22;59898;52.786;6.892;2023-03-08T11:01:49;1.20;99.90
52669;DHT22;59898;52.786;6.892;2023-03-08T11:05:20;1.30;99.90
52669;DHT22;59898;52.786;6.892;2023-03-08T11:08:53;1.50;99.90
52669;DHT22;59898;52.786;6.892;2023-03-08T11:12:22;1.60;99.90
52669;DHT22;59898;52.786;6.892;2023-03-08T11:16:36;2.20;99.90
52669;DHT22;59898;52.786;6.892;2023-03-08T11:23:31;1.90;99.90
52669;DHT22;59898;52.786;6.892;2023-03-08T11:27:19;1.90;99.90
52669;DHT22;59898;52.786;6.892;2023-03-08T11:38:26;2.00;99.90
52669;DHT22;59898;52.786;6.892;2023-03-08T11:46:09;1.90;99.90
52669;DHT22;59898;52.786;6.892;2023-03-08T11:49:50;1.90;99.90
52669;DHT22;59898;52.786;6.892;2023-03-08T11:53:22;2.00;99.90
52669;DHT22;59898;52.786;6.892;2023-03-08T11:56:54;3.30;99.90
52669;DHT22;59898;52.786;6.892;2023-03-08T12:00:27;2.10;99.90
52669;DHT22;59898;52.786;6.892;2023-03-08T12:03:52;2.10;99.90
52669;DHT22;59898;52.786;6.892;2023-03-08T12:07:31;2.40;99.90
52669;DHT22;59898;52.786;6.892;2023-03-08T12:11:02;2.60;99.90
52669;DHT22;59898;52.786;6.892;2023-03-08T12:14:30;2.30;99.90
52669;DHT22;59898;52.786;6.892;2023-03-08T12:17:56;2.20;99.90
52669;DHT22;59898;52.786;6.892;2023-03-08T12:25:22;2.20;99.90
52669;DHT22;59898;52.786;6.892;2023-03-08T12:29:02;2.30;99.90
52669;DHT22;59898;52.786;6.892;2023-03-08T12:32:24;2.30;99.90
52669;DHT22;59898;52.786;6.892;2023-03-08T12:39:32;2.50;99.90
52669;DHT22;59898;52.786;6.892;2023-03-08T12:43:08;2.70;99.90
52669;DHT22;59898;52.786;6.892;2023-03-08T12:50:45;2.70;99.90
52669;DHT22;59898;52.786;6.892;2023-03-08T12:54:20;3.50;99.90
52669;DHT22;59898;52.786;6.892;2023-03-08T12:57:50;2.70;99.90
52669;DHT22;59898;52.786;6.892;2023-03-08T13:05:27;2.80;99.90
52669;DHT22;59898;52.786;6.892;2023-03-08T13:08:59;2.80;99.90
52669;DHT22;59898;52.786;6.892;2023-03-08T13:12:35;2.80;99.90
52669;DHT22;59898;52.786;6.892;2023-03-08T13:19:30;2.90;99.90
52669;DHT22;59898;52.786;6.892;2023-03-08T13:26:52;2.90;99.90
52669;DHT22;59898;52.786;6.892;2023-03-08T13:30:27;3.00;99.90
52669;DHT22;59898;52.786;6.892;2023-03-08T13:33:53;2.90;99.90
52669;DHT22;59898;52.786;6.892;2023-03-08T13:37:22;3.00;99.90
52669;DHT22;59898;52.786;6.892;2023-03-08T13:40:53;3.00;99.90
52669;DHT22;59898;52.786;6.892;2023-03-08T13:44:25;3.40;99.90
52669;DHT22;59898;52.786;6.892;2023-03-08T13:47:47;3.00;99.90
52669;DHT22;59898;52.786;6.892;2023-03-08T13:51:08;3.10;99.90
52669;DHT22;59898;52.786;6.892;2023-03-08T13:54:36;3.40;99.90
52669;DHT22;59898;52.786;6.892;2023-03-08T13:58:01;3.30;99.90
52669;DHT22;59898;52.786;6.892;2023-03-08T14:01:24;3.40;99.90
52669;DHT22;59898;52.786;6.892;2023-03-08T14:04:45;3.20;99.90
52669;DHT22;59898;52.786;6.892;2023-03-08T14:08:17;3.20;99.90
52669;DHT22;59898;52.786;6.892;2023-03-08T14:11:40;3.30;99.90
52669;DHT22;59898;52.786;6.892;2023-03-08T14:15:03;3.30;99.90
52669;DHT22;59898;52.786;6.892;2023-03-08T14:18:31;3.30;99.90
52669;DHT22;59898;52.786;6.892;2023-03-08T14:25:28;3.30;99.90
52669;DHT22;59898;52.786;6.892;2023-03-08T14:28:49;3.30;99.90
52669;DHT22;59898;52.786;6.892;2023-03-08T14:32:30;3.40;99.90
52669;DHT22;59898;52.786;6.892;2023-03-08T14:35:56;3.50;99.90
52669;DHT22;59898;52.786;6.892;2023-03-08T14:39:19;3.60;99.90
52669;DHT22;59898;52.786;6.892;2023-03-08T14:42:44;3.60;99.90
52669;DHT22;59898;52.786;6.892;2023-03-08T14:46:06;3.50;99.90
52669;DHT22;59898;52.786;6.892;2023-03-08T14:49:28;3.40;99.90
52669;DHT22;59898;52.786;6.892;2023-03-08T14:52:51;3.50;99.90
52669;DHT22;59898;52.786;6.892;2023-03-08T14:56:13;3.40;99.90
52669;DHT22;59898;52.786;6.892;2023-03-08T14:59:34;3.40;99.90
52669;DHT22;59898;52.786;6.892;2023-03-08T15:02:58;3.50;99.90
52669;DHT22;59898;52.786;6.892;2023-03-08T15:06:22;3.50;99.90
52669;DHT22;59898;52.786;6.892;2023-03-08T15:09:43;3.50;99.90
52669;DHT22;59898;52.786;6.892;2023-03-08T15:13:06;3.60;99.90
52669;DHT22;59898;52.786;6.892;2023-03-08T15:16:29;4.20;99.90
52669;DHT22;59898;52.786;6.892;2023-03-08T15:19:50;3.70;99.90
52669;DHT22;59898;52.786;6.892;2023-03-08T15:23:20;4.00;99.90
52669;DHT22;59898;52.786;6.892;2023-03-08T15:26:41;3.70;99.90
52669;DHT22;59898;52.786;6.892;2023-03-08T15:30:03;3.70;99.90
52669;DHT22;59898;52.786;6.892;2023-03-08T15:33:23;3.60;99.90
52669;DHT22;59898;52.786;6.892;2023-03-08T15:36:45;3.60;99.90
52669;DHT22;59898;52.786;6.892;2023-03-08T15:40:14;3.50;99.90
52669;DHT22;59898;52.786;6.892;2023-03-08T15:43:35;3.50;99.90
52669;DHT22;59898;52.786;6.892;2023-03-08T15:46:56;3.50;99.90
52669;DHT22;59898;52.786;6.892;2023-03-08T15:50:17;3.80;99.90
52669;DHT22;59898;52.786;6.892;2023-03-08T15:53:38;3.50;99.90
52669;DHT22;59898;52.786;6.892;2023-03-08T15:56:58;3.40;99.90
52669;DHT22;59898;52.786;6.892;2023-03-08T16:00:21;3.40;99.90
52669;DHT22;59898;52.786;6.892;2023-03-08T16:03:42;3.40;99.90
52669;DHT22;59898;52.786;6.892;2023-03-08T16:07:03;3.40;99.90
52669;DHT22;59898;52.786;6.892;2023-03-08T16:10:24;3.40;99.90
52669;DHT22;59898;52.786;6.892;2023-03-08T16:13:48;3.40;99.90
52669;DHT22;59898;52.786;6.892;2023-03-08T16:17:09;3.80;99.90
52669;DHT22;59898;52.786;6.892;2023-03-08T16:20:30;3.40;99.90
52669;DHT22;59898;52.786;6.892;2023-03-08T16:23:50;3.40;99.90
52669;DHT22;59898;52.786;6.892;2023-03-08T16:27:11;3.60;99.90
52669;DHT22;59898;52.786;6.892;2023-03-08T16:30:32;3.30;99.90
52669;DHT22;59898;52.786;6.892;2023-03-08T16:33:53;4.00;99.90
52669;DHT22;59898;52.786;6.892;2023-03-08T16:37:13;3.20;99.90
52669;DHT22;59898;52.786;6.892;2023-03-08T16:40:34;3.40;99.90
52669;DHT22;59898;52.786;6.892;2023-03-08T16:43:56;3.20;99.90
52669;DHT22;59898;52.786;6.892;2023-03-08T16:47:18;3.20;99.90
52669;DHT22;59898;52.786;6.892;2023-03-08T16:50:39;3.20;99.90
52669;DHT22;59898;52.786;6.892;2023-03-08T16:54:00;3.20;99.90
52669;DHT22;59898;52.786;6.892;2023-03-08T16:57:20;3.10;99.90
52669;DHT22;59898;52.786;6.892;2023-03-08T17:00:42;3.00;99.90
52669;DHT22;59898;52.786;6.892;2023-03-08T17:04:04;3.10;99.90
52669;DHT22;59898;52.786;6.892;2023-03-08T17:07:25;3.10;99.90
52669;DHT22;59898;52.786;6.892;2023-03-08T17:10:45;3.30;99.90
52669;DHT22;59898;52.786;6.892;2023-03-08T17:14:08;3.20;99.90
52669;DHT22;59898;52.786;6.892;2023-03-08T17:17:30;3.00;99.90
52669;DHT22;59898;52.786;6.892;2023-03-08T17:20:51;3.00;99.90
52669;DHT22;59898;52.786;6.892;2023-03-08T17:24:13;3.00;99.90
52669;DHT22;59898;52.786;6.892;2023-03-08T17:27:33;3.10;99.90
52669;DHT22;59898;52.786;6.892;2023-03-08T17:30:54;3.20;99.90
52669;DHT22;59898;52.786;6.892;2023-03-08T17:34:15;2.90;99.90
52669;DHT22;59898;52.786;6.892;2023-03-08T17:37:36;3.30;99.90
52669;DHT22;59898;52.786;6.892;2023-03-08T17:41:06;2.80;99.90
52669;DHT22;59898;52.786;6.892;2023-03-08T17:44:27;2.80;99.90
52669;DHT22;59898;52.786;6.892;2023-03-08T17:47:47;2.80;99.90
52669;DHT22;59898;52.786;6.892;2023-03-08T17:51:10;2.80;99.90
52669;DHT22;59898;52.786;6.892;2023-03-08T17:54:31;2.90;99.90
52669;DHT22;59898;52.786;6.892;2023-03-08T17:57:52;2.80;99.90
52669;DHT22;59898;52.786;6.892;2023-03-08T18:01:18;2.70;99.90
52669;DHT22;59898;52.786;6.892;2023-03-08T18:04:43;2.90;99.90
52669;DHT22;59898;52.786;6.892;2023-03-08T18:08:04;2.70;99.90
52669;DHT22;59898;52.786;6.892;2023-03-08T18:11:25;2.70;99.90
52669;DHT22;59898;52.786;6.892;2023-03-08T18:14:46;2.80;99.90
52669;DHT22;59898;52.786;6.892;2023-03-08T18:18:11;2.80;99.90
52669;DHT22;59898;52.786;6.892;2023-03-08T18:21:34;2.70;99.90
52669;DHT22;59898;52.786;6.892;2023-03-08T18:24:55;2.80;99.90
52669;DHT22;59898;52.786;6.892;2023-03-08T18:28:16;2.70;99.90
52669;DHT22;59898;52.786;6.892;2023-03-08T18:31:40;2.70;99.90
52669;DHT22;59898;52.786;6.892;2023-03-08T18:35:01;2.80;99.90
52669;DHT22;59898;52.786;6.892;2023-03-08T18:38:22;3.00;99.90
52669;DHT22;59898;52.786;6.892;2023-03-08T18:41:43;3.30;99.90
52669;DHT22;59898;52.786;6.892;2023-03-08T18:45:04;2.70;99.90
52669;DHT22;59898;52.786;6.892;2023-03-08T18:48:29;2.60;99.90
52669;DHT22;59898;52.786;6.892;2023-03-08T18:51:49;2.60;99.90
52669;DHT22;59898;52.786;6.892;2023-03-08T18:55:10;2.60;99.90
52669;DHT22;59898;52.786;6.892;2023-03-08T18:58:32;3.10;99.90
52669;DHT22;59898;52.786;6.892;2023-03-08T19:01:53;2.60;99.90
52669;DHT22;59898;52.786;6.892;2023-03-08T19:05:14;2.60;99.90
52669;DHT22;59898;52.786;6.892;2023-03-08T19:08:35;2.60;99.90
52669;DHT22;59898;52.786;6.892;2023-03-08T19:11:55;2.60;99.90
52669;DHT22;59898;52.786;6.892;2023-03-08T19:15:16;2.60;99.90
52669;DHT22;59898;52.786;6.892;2023-03-08T19:18:37;2.60;99.90
52669;DHT22;59898;52.786;6.892;2023-03-08T19:21:57;3.00;99.90
52669;DHT22;59898;52.786;6.892;2023-03-08T19:25:18;2.70;99.90
52669;DHT22;59898;52.786;6.892;2023-03-08T19:28:39;2.90;99.90
52669;DHT22;59898;52.786;6.892;2023-03-08T19:32:03;2.50;99.90
52669;DHT22;59898;52.786;6.892;2023-03-08T19:35:24;2.60;99.90
52669;DHT22;59898;52.786;6.892;2023-03-08T19:38:44;2.50;99.90
52669;DHT22;59898;52.786;6.892;2023-03-08T19:42:07;2.50;99.90
52669;DHT22;59898;52.786;6.892;2023-03-08T19:45:28;2.50;99.90
52669;DHT22;59898;52.786;6.892;2023-03-08T19:48:49;2.50;99.90
52669;DHT22;59898;52.786;6.892;2023-03-08T19:52:11;2.50;99.90
52669;DHT22;59898;52.786;6.892;2023-03-08T19:55:33;2.50;99.90
52669;DHT22;59898;52.786;6.892;2023-03-08T19:58:54;2.40;99.90
52669;DHT22;59898;52.786;6.892;2023-03-08T20:02:16;2.40;99.90
52669;DHT22;59898;52.786;6.892;2023-03-08T20:05:45;2.30;99.90
52669;DHT22;59898;52.786;6.892;2023-03-08T20:09:07;2.30;99.90
52669;DHT22;59898;52.786;6.892;2023-03-08T20:12:28;2.20;99.90
52669;DHT22;59898;52.786;6.892;2023-03-08T20:15:49;2.20;99.90
52669;DHT22;59898;52.786;6.892;2023-03-08T20:19:09;2.60;99.90
52669;DHT22;59898;52.786;6.892;2023-03-08T20:22:30;2.10;99.90
52669;DHT22;59898;52.786;6.892;2023-03-08T20:25:51;2.10;99.90
52669;DHT22;59898;52.786;6.892;2023-03-08T20:29:12;2.20;99.90
52669;DHT22;59898;52.786;6.892;2023-03-08T20:32:33;2.70;99.90
52669;DHT22;59898;52.786;6.892;2023-03-08T20:36:00;2.70;99.90
52669;DHT22;59898;52.786;6.892;2023-03-08T20:39:20;2.00;99.90
52669;DHT22;59898;52.786;6.892;2023-03-08T20:42:41;2.00;99.90
52669;DHT22;59898;52.786;6.892;2023-03-08T20:46:04;2.50;99.90
52669;DHT22;59898;52.786;6.892;2023-03-08T20:49:25;1.90;99.90
52669;DHT22;59898;52.786;6.892;2023-03-08T20:52:47;1.90;99.90
52669;DHT22;59898;52.786;6.892;2023-03-08T20:56:11;2.20;99.90
52669;DHT22;59898;52.786;6.892;2023-03-08T20:59:32;1.80;99.90
52669;DHT22;59898;52.786;6.892;2023-03-08T21:02:53;1.80;99.90
52669;DHT22;59898;52.786;6.892;2023-03-08T21:06:23;1.80;99.90
52669;DHT22;59898;52.786;6.892;2023-03-08T21:09:44;2.10;99.90
52669;DHT22;59898;52.786;6.892;2023-03-08T21:13:05;1.90;99.90
52669;DHT22;59898;52.786;6.892;2023-03-08T21:16:27;1.80;99.90
52669;DHT22;59898;52.786;6.892;2023-03-08T21:19:48;1.80;99.90
52669;DHT22;59898;52.786;6.892;2023-03-08T21:23:09;1.80;99.90
52669;DHT22;59898;52.786;6.892;2023-03-08T21:26:30;1.80;99.90
52669;DHT22;59898;52.786;6.892;2023-03-08T21:29:53;1.80;99.90
52669;DHT22;59898;52.786;6.892;2023-03-08T21:33:14;1.80;99.90
52669;DHT22;59898;52.786;6.892;2023-03-08T21:36:36;1.80;99.90
52669;DHT22;59898;52.786;6.892;2023-03-08T21:39:57;1.70;99.90
52669;DHT22;59898;52.786;6.892;2023-03-08T21:43:18;1.80;99.90
52669;DHT22;59898;52.786;6.892;2023-03-08T21:46:39;1.80;99.90
52669;DHT22;59898;52.786;6.892;2023-03-08T21:50:00;1.80;99.90
52669;DHT22;59898;52.786;6.892;2023-03-08T21:53:21;2.20;99.90
52669;DHT22;59898;52.786;6.892;2023-03-08T21:56:42;1.80;99.90
52669;DHT22;59898;52.786;6.892;2023-03-08T22:00:03;1.80;99.90
52669;DHT22;59898;52.786;6.892;2023-03-08T22:03:25;1.80;99.90
52669;DHT22;59898;52.786;6.892;2023-03-08T22:06:49;1.80;99.90
52669;DHT22;59898;52.786;6.892;2023-03-08T22:10:11;1.70;99.90
52669;DHT22;59898;52.786;6.892;2023-03-08T22:13:32;1.90;99.90
52669;DHT22;59898;52.786;6.892;2023-03-08T22:16:53;1.70;99.90
52669;DHT22;59898;52.786;6.892;2023-03-08T22:20:15;1.70;99.90
52669;DHT22;59898;52.786;6.892;2023-03-08T22:23:36;1.70;99.90
52669;DHT22;59898;52.786;6.892;2023-03-08T22:26:57;1.60;99.90
52669;DHT22;59898;52.786;6.892;2023-03-08T22:30:18;1.60;99.90
52669;DHT22;59898;52.786;6.892;2023-03-08T22:33:38;1.60;99.90
52669;DHT22;59898;52.786;6.892;2023-03-08T22:36:59;2.20;99.90
52669;DHT22;59898;52.786;6.892;2023-03-08T22:40:20;1.60;99.90